sensor_id;sensor_type;location;lat;lon;timestamp;P1;durP1;ratioP1;P2;durP2;ratioP2
63714;SDS011;49858;48.956;9.076;2022-08-03T00:01:37;3.38;;;2.72;;
63714;SDS011;49858;48.956;9.076;2022-08-03T00:04:06;3.83;;;2.72;;
63714;SDS011;49858;48.956;9.076;2022-08-03T00:06:35;4.22;;;2.83;;
63714;SDS011;49858;48.956;9.076;2022-08-03T00:09:05;4.00;;;2.63;;
63714;SDS011;49858;48.956;9.076;2022-08-03T00:11:33;4.90;;;3.17;;
63714;SDS011;49858;48.956;9.076;2022-08-03T00:14:02;5.00;;;3.30;;
63714;SDS011;49858;48.956;9.076;2022-08-03T00:16:30;4.53;;;3.50;;
63714;SDS011;49858;48.956;9.076;2022-08-03T00:18:58;3.92;;;3.20;;
63714;SDS011;49858;48.956;9.076;2022-08-03T00:21:26;6.82;;;4.00;;
63714;SDS011;49858;48.956;9.076;2022-08-03T00:23:54;5.63;;;3.05;;
63714;SDS011;49858;48.956;9.076;2022-08-03T00:26:23;4.63;;;2.85;;
63714;SDS011;49858;48.956;9.076;2022-08-03T00:28:51;4.30;;;3.10;;
63714;SDS011;49858;48.956;9.076;2022-08-03T00:31:19;4.00;;;3.60;;
63714;SDS011;49858;48.956;9.076;2022-08-03T00:34:06;4.90;;;3.20;;
63714;SDS011;49858;48.956;9.076;2022-08-03T00:36:34;7.43;;;3.72;;
63714;SDS011;49858;48.956;9.076;2022-08-03T00:39:02;5.63;;;3.40;;
63714;SDS011;49858;48.956;9.076;2022-08-03T00:41:31;5.03;;;3.33;;
63714;SDS011;49858;48.956;9.076;2022-08-03T00:43:59;4.70;;;2.92;;
63714;SDS011;49858;48.956;9.076;2022-08-03T00:46:27;4.63;;;3.38;;
63714;SDS011;49858;48.956;9.076;2022-08-03T00:48:55;5.93;;;3.65;;
63714;SDS011;49858;48.956;9.076;2022-08-03T00:51:23;7.47;;;3.40;;
63714;SDS011;49858;48.956;9.076;2022-08-03T00:53:51;3.95;;;3.08;;
63714;SDS011;49858;48.956;9.076;2022-08-03T00:56:19;4.82;;;3.22;;
63714;SDS011;49858;48.956;9.076;2022-08-03T00:58:48;4.28;;;3.08;;
63714;SDS011;49858;48.956;9.076;2022-08-03T01:01:18;3.28;;;2.72;;
63714;SDS011;49858;48.956;9.076;2022-08-03T01:03:46;8.00;;;3.30;;
63714;SDS011;49858;48.956;9.076;2022-08-03T01:06:15;3.72;;;2.85;;
63714;SDS011;49858;48.956;9.076;2022-08-03T01:08:45;4.40;;;3.30;;
63714;SDS011;49858;48.956;9.076;2022-08-03T01:11:22;9.82;;;3.92;;
63714;SDS011;49858;48.956;9.076;2022-08-03T01:14:08;6.68;;;4.03;;
63714;SDS011;49858;48.956;9.076;2022-08-03T01:16:47;7.32;;;4.18;;
63714;SDS011;49858;48.956;9.076;2022-08-03T01:19:35;10.50;;;5.28;;
63714;SDS011;49858;48.956;9.076;2022-08-03T01:22:16;8.18;;;4.85;;
63714;SDS011;49858;48.956;9.076;2022-08-03T01:25:02;7.88;;;4.47;;
63714;SDS011;49858;48.956;9.076;2022-08-03T01:27:37;6.18;;;3.90;;
63714;SDS011;49858;48.956;9.076;2022-08-03T01:30:19;5.95;;;3.47;;
63714;SDS011;49858;48.956;9.076;2022-08-03T01:32:53;5.00;;;3.55;;
63714;SDS011;49858;48.956;9.076;2022-08-03T01:35:28;4.97;;;3.65;;
63714;SDS011;49858;48.956;9.076;2022-08-03T01:38:06;7.65;;;4.03;;
63714;SDS011;49858;48.956;9.076;2022-08-03T01:40:38;5.55;;;3.95;;
63714;SDS011;49858;48.956;9.076;2022-08-03T01:43:08;8.32;;;4.60;;
63714;SDS011;49858;48.956;9.076;2022-08-03T01:45:41;6.47;;;3.80;;
63714;SDS011;49858;48.956;9.076;2022-08-03T01:48:11;4.65;;;3.83;;
63714;SDS011;49858;48.956;9.076;2022-08-03T01:50:42;9.27;;;3.95;;
63714;SDS011;49858;48.956;9.076;2022-08-03T01:53:12;6.40;;;4.32;;
63714;SDS011;49858;48.956;9.076;2022-08-03T01:55:41;6.28;;;4.00;;
63714;SDS011;49858;48.956;9.076;2022-08-03T01:58:11;5.50;;;4.10;;
63714;SDS011;49858;48.956;9.076;2022-08-03T02:00:43;5.15;;;3.97;;
63714;SDS011;49858;48.956;9.076;2022-08-03T02:03:12;6.30;;;3.50;;
63714;SDS011;49858;48.956;9.076;2022-08-03T02:05:43;7.72;;;4.38;;
63714;SDS011;49858;48.956;9.076;2022-08-03T02:08:12;7.07;;;4.13;;
63714;SDS011;49858;48.956;9.076;2022-08-03T02:10:42;11.45;;;4.68;;
63714;SDS011;49858;48.956;9.076;2022-08-03T02:13:12;4.95;;;4.13;;
63714;SDS011;49858;48.956;9.076;2022-08-03T02:15:44;5.72;;;4.03;;
63714;SDS011;49858;48.956;9.076;2022-08-03T02:18:13;6.32;;;4.25;;
63714;SDS011;49858;48.956;9.076;2022-08-03T02:20:42;6.28;;;4.55;;
63714;SDS011;49858;48.956;9.076;2022-08-03T02:23:10;6.85;;;4.40;;
63714;SDS011;49858;48.956;9.076;2022-08-03T02:25:40;6.45;;;4.50;;
63714;SDS011;49858;48.956;9.076;2022-08-03T02:28:11;7.47;;;4.47;;
63714;SDS011;49858;48.956;9.076;2022-08-03T02:30:43;6.20;;;3.92;;
63714;SDS011;49858;48.956;9.076;2022-08-03T02:33:20;6.95;;;4.72;;
63714;SDS011;49858;48.956;9.076;2022-08-03T02:35:53;9.13;;;4.45;;
63714;SDS011;49858;48.956;9.076;2022-08-03T02:38:25;5.72;;;4.25;;
63714;SDS011;49858;48.956;9.076;2022-08-03T02:43:26;8.38;;;4.60;;
63714;SDS011;49858;48.956;9.076;2022-08-03T02:46:19;7.25;;;4.53;;
63714;SDS011;49858;48.956;9.076;2022-08-03T02:48:51;5.97;;;4.65;;
63714;SDS011;49858;48.956;9.076;2022-08-03T02:51:20;9.57;;;4.40;;
63714;SDS011;49858;48.956;9.076;2022-08-03T02:53:49;7.45;;;4.70;;
63714;SDS011;49858;48.956;9.076;2022-08-03T02:56:19;7.10;;;4.78;;
63714;SDS011;49858;48.956;9.076;2022-08-03T02:58:48;7.25;;;4.55;;
63714;SDS011;49858;48.956;9.076;2022-08-03T03:01:18;5.88;;;4.45;;
63714;SDS011;49858;48.956;9.076;2022-08-03T03:03:49;6.53;;;4.30;;
63714;SDS011;49858;48.956;9.076;2022-08-03T03:06:18;7.32;;;4.70;;
63714;SDS011;49858;48.956;9.076;2022-08-03T03:08:49;6.43;;;3.78;;
63714;SDS011;49858;48.956;9.076;2022-08-03T03:11:25;5.13;;;4.00;;
63714;SDS011;49858;48.956;9.076;2022-08-03T03:13:53;5.25;;;3.88;;
63714;SDS011;49858;48.956;9.076;2022-08-03T03:16:24;5.65;;;3.88;;
63714;SDS011;49858;48.956;9.076;2022-08-03T03:18:54;5.03;;;3.53;;
63714;SDS011;49858;48.956;9.076;2022-08-03T03:21:23;5.03;;;3.95;;
63714;SDS011;49858;48.956;9.076;2022-08-03T03:23:53;5.82;;;4.60;;
63714;SDS011;49858;48.956;9.076;2022-08-03T03:26:21;6.95;;;5.13;;
63714;SDS011;49858;48.956;9.076;2022-08-03T03:28:49;5.15;;;4.00;;
63714;SDS011;49858;48.956;9.076;2022-08-03T03:31:17;9.27;;;4.25;;
63714;SDS011;49858;48.956;9.076;2022-08-03T03:33:46;7.03;;;4.82;;
63714;SDS011;49858;48.956;9.076;2022-08-03T03:36:14;7.30;;;4.93;;
63714;SDS011;49858;48.956;9.076;2022-08-03T03:38:43;8.20;;;4.57;;
63714;SDS011;49858;48.956;9.076;2022-08-03T03:41:11;7.30;;;4.65;;
63714;SDS011;49858;48.956;9.076;2022-08-03T03:43:39;9.77;;;4.82;;
63714;SDS011;49858;48.956;9.076;2022-08-03T03:46:07;6.93;;;4.85;;
63714;SDS011;49858;48.956;9.076;2022-08-03T03:48:38;7.43;;;5.15;;
63714;SDS011;49858;48.956;9.076;2022-08-03T03:51:07;8.68;;;5.45;;
63714;SDS011;49858;48.956;9.076;2022-08-03T03:53:36;9.82;;;4.90;;
63714;SDS011;49858;48.956;9.076;2022-08-03T03:56:04;10.00;;;5.20;;
63714;SDS011;49858;48.956;9.076;2022-08-03T03:58:32;9.48;;;4.43;;
63714;SDS011;49858;48.956;9.076;2022-08-03T04:00:59;6.85;;;4.40;;
63714;SDS011;49858;48.956;9.076;2022-08-03T04:03:28;6.72;;;4.32;;
63714;SDS011;49858;48.956;9.076;2022-08-03T04:05:55;7.20;;;4.45;;
63714;SDS011;49858;48.956;9.076;2022-08-03T04:08:42;6.90;;;4.53;;
63714;SDS011;49858;48.956;9.076;2022-08-03T04:11:30;6.88;;;5.03;;
63714;SDS011;49858;48.956;9.076;2022-08-03T04:14:05;7.30;;;4.32;;
63714;SDS011;49858;48.956;9.076;2022-08-03T04:16:37;5.45;;;4.22;;
63714;SDS011;49858;48.956;9.076;2022-08-03T04:19:10;6.47;;;4.28;;
63714;SDS011;49858;48.956;9.076;2022-08-03T04:21:48;7.10;;;4.13;;
63714;SDS011;49858;48.956;9.076;2022-08-03T04:24:23;8.30;;;4.57;;
63714;SDS011;49858;48.956;9.076;2022-08-03T04:26:56;8.48;;;4.90;;
63714;SDS011;49858;48.956;9.076;2022-08-03T04:29:26;8.82;;;5.40;;
63714;SDS011;49858;48.956;9.076;2022-08-03T04:31:55;9.45;;;5.15;;
63714;SDS011;49858;48.956;9.076;2022-08-03T04:34:28;6.63;;;4.78;;
63714;SDS011;49858;48.956;9.076;2022-08-03T04:36:57;10.48;;;4.93;;
63714;SDS011;49858;48.956;9.076;2022-08-03T04:39:28;6.05;;;4.40;;
63714;SDS011;49858;48.956;9.076;2022-08-03T04:41:59;6.30;;;4.35;;
63714;SDS011;49858;48.956;9.076;2022-08-03T04:44:34;5.78;;;4.40;;
63714;SDS011;49858;48.956;9.076;2022-08-03T04:47:05;8.57;;;4.60;;
63714;SDS011;49858;48.956;9.076;2022-08-03T04:49:33;6.20;;;4.22;;
63714;SDS011;49858;48.956;9.076;2022-08-03T04:52:03;7.40;;;4.43;;
63714;SDS011;49858;48.956;9.076;2022-08-03T04:54:39;7.18;;;4.65;;
63714;SDS011;49858;48.956;9.076;2022-08-03T04:59:47;6.85;;;5.03;;
63714;SDS011;49858;48.956;9.076;2022-08-03T05:02:26;6.10;;;4.88;;
63714;SDS011;49858;48.956;9.076;2022-08-03T05:04:54;7.05;;;4.65;;
63714;SDS011;49858;48.956;9.076;2022-08-03T05:07:22;7.43;;;4.82;;
63714;SDS011;49858;48.956;9.076;2022-08-03T05:09:52;7.30;;;5.00;;
63714;SDS011;49858;48.956;9.076;2022-08-03T05:12:27;7.07;;;5.32;;
63714;SDS011;49858;48.956;9.076;2022-08-03T05:14:58;9.77;;;5.43;;
63714;SDS011;49858;48.956;9.076;2022-08-03T05:17:26;7.18;;;5.03;;
63714;SDS011;49858;48.956;9.076;2022-08-03T05:19:54;9.30;;;5.70;;
63714;SDS011;49858;48.956;9.076;2022-08-03T05:22:23;7.30;;;5.85;;
63714;SDS011;49858;48.956;9.076;2022-08-03T05:24:52;7.70;;;5.25;;
63714;SDS011;49858;48.956;9.076;2022-08-03T05:27:19;9.30;;;5.28;;
63714;SDS011;49858;48.956;9.076;2022-08-03T05:29:48;6.45;;;4.90;;
63714;SDS011;49858;48.956;9.076;2022-08-03T05:32:17;8.00;;;5.40;;
63714;SDS011;49858;48.956;9.076;2022-08-03T05:34:45;7.13;;;5.20;;
63714;SDS011;49858;48.956;9.076;2022-08-03T05:37:13;9.32;;;5.10;;
63714;SDS011;49858;48.956;9.076;2022-08-03T05:39:41;7.20;;;5.22;;
63714;SDS011;49858;48.956;9.076;2022-08-03T05:42:10;9.98;;;5.57;;
63714;SDS011;49858;48.956;9.076;2022-08-03T05:44:38;10.73;;;5.28;;
63714;SDS011;49858;48.956;9.076;2022-08-03T05:47:06;8.82;;;5.75;;
63714;SDS011;49858;48.956;9.076;2022-08-03T05:49:34;8.25;;;5.53;;
63714;SDS011;49858;48.956;9.076;2022-08-03T05:52:02;6.78;;;5.32;;
63714;SDS011;49858;48.956;9.076;2022-08-03T05:54:40;9.63;;;6.50;;
63714;SDS011;49858;48.956;9.076;2022-08-03T05:57:24;11.05;;;5.88;;
63714;SDS011;49858;48.956;9.076;2022-08-03T05:59:52;7.90;;;6.20;;
63714;SDS011;49858;48.956;9.076;2022-08-03T06:02:24;9.10;;;5.57;;
63714;SDS011;49858;48.956;9.076;2022-08-03T06:04:51;8.40;;;6.50;;
63714;SDS011;49858;48.956;9.076;2022-08-03T06:07:19;10.35;;;5.80;;
63714;SDS011;49858;48.956;9.076;2022-08-03T06:09:47;9.05;;;6.45;;
63714;SDS011;49858;48.956;9.076;2022-08-03T06:12:36;11.43;;;6.38;;
63714;SDS011;49858;48.956;9.076;2022-08-03T06:15:06;10.07;;;6.30;;
63714;SDS011;49858;48.956;9.076;2022-08-03T06:17:44;9.13;;;5.97;;
63714;SDS011;49858;48.956;9.076;2022-08-03T06:20:14;11.05;;;7.15;;
63714;SDS011;49858;48.956;9.076;2022-08-03T06:22:43;12.85;;;6.68;;
63714;SDS011;49858;48.956;9.076;2022-08-03T06:25:16;8.15;;;6.63;;
63714;SDS011;49858;48.956;9.076;2022-08-03T06:27:48;8.82;;;6.55;;
63714;SDS011;49858;48.956;9.076;2022-08-03T06:30:16;9.98;;;5.97;;
63714;SDS011;49858;48.956;9.076;2022-08-03T06:32:46;9.95;;;5.82;;
63714;SDS011;49858;48.956;9.076;2022-08-03T06:35:18;11.65;;;6.10;;
63714;SDS011;49858;48.956;9.076;2022-08-03T06:37:47;11.02;;;6.15;;
63714;SDS011;49858;48.956;9.076;2022-08-03T06:40:17;9.57;;;6.20;;
63714;SDS011;49858;48.956;9.076;2022-08-03T06:42:51;9.50;;;5.70;;
63714;SDS011;49858;48.956;9.076;2022-08-03T06:45:19;8.50;;;5.45;;
63714;SDS011;49858;48.956;9.076;2022-08-03T06:47:47;7.10;;;5.03;;
63714;SDS011;49858;48.956;9.076;2022-08-03T06:50:26;10.68;;;6.10;;
63714;SDS011;49858;48.956;9.076;2022-08-03T06:52:54;7.50;;;5.47;;
63714;SDS011;49858;48.956;9.076;2022-08-03T06:55:22;9.57;;;5.80;;
63714;SDS011;49858;48.956;9.076;2022-08-03T06:57:51;7.60;;;5.03;;
63714;SDS011;49858;48.956;9.076;2022-08-03T07:00:25;13.15;;;5.68;;
63714;SDS011;49858;48.956;9.076;2022-08-03T07:02:53;6.97;;;4.55;;
63714;SDS011;49858;48.956;9.076;2022-08-03T07:05:24;6.47;;;4.95;;
63714;SDS011;49858;48.956;9.076;2022-08-03T07:07:54;10.32;;;4.82;;
63714;SDS011;49858;48.956;9.076;2022-08-03T07:10:23;7.38;;;4.85;;
63714;SDS011;49858;48.956;9.076;2022-08-03T07:12:52;10.43;;;4.72;;
63714;SDS011;49858;48.956;9.076;2022-08-03T07:15:22;5.50;;;4.55;;
63714;SDS011;49858;48.956;9.076;2022-08-03T07:18:10;6.13;;;4.68;;
63714;SDS011;49858;48.956;9.076;2022-08-03T07:20:38;7.50;;;4.47;;
63714;SDS011;49858;48.956;9.076;2022-08-03T07:23:06;7.03;;;4.43;;
63714;SDS011;49858;48.956;9.076;2022-08-03T07:25:37;4.93;;;4.18;;
63714;SDS011;49858;48.956;9.076;2022-08-03T07:28:06;7.38;;;4.22;;
63714;SDS011;49858;48.956;9.076;2022-08-03T07:30:34;6.72;;;4.13;;
63714;SDS011;49858;48.956;9.076;2022-08-03T07:33:02;5.75;;;3.70;;
63714;SDS011;49858;48.956;9.076;2022-08-03T07:35:30;6.72;;;3.72;;
63714;SDS011;49858;48.956;9.076;2022-08-03T07:37:58;5.80;;;4.47;;
63714;SDS011;49858;48.956;9.076;2022-08-03T07:40:25;7.18;;;4.07;;
63714;SDS011;49858;48.956;9.076;2022-08-03T07:42:57;9.30;;;4.15;;
63714;SDS011;49858;48.956;9.076;2022-08-03T07:45:26;10.10;;;3.63;;
63714;SDS011;49858;48.956;9.076;2022-08-03T07:47:55;7.85;;;3.50;;
63714;SDS011;49858;48.956;9.076;2022-08-03T07:50:23;5.28;;;3.60;;
63714;SDS011;49858;48.956;9.076;2022-08-03T07:52:51;6.57;;;3.28;;
63714;SDS011;49858;48.956;9.076;2022-08-03T07:55:23;5.15;;;3.65;;
63714;SDS011;49858;48.956;9.076;2022-08-03T07:58:03;4.75;;;3.15;;
63714;SDS011;49858;48.956;9.076;2022-08-03T08:00:34;4.72;;;3.58;;
63714;SDS011;49858;48.956;9.076;2022-08-03T08:03:05;4.82;;;3.03;;
63714;SDS011;49858;48.956;9.076;2022-08-03T08:05:34;7.75;;;3.70;;
63714;SDS011;49858;48.956;9.076;2022-08-03T08:08:02;9.23;;;3.70;;
63714;SDS011;49858;48.956;9.076;2022-08-03T08:10:30;5.95;;;3.20;;
63714;SDS011;49858;48.956;9.076;2022-08-03T08:12:59;4.40;;;2.90;;
63714;SDS011;49858;48.956;9.076;2022-08-03T08:15:27;3.97;;;2.80;;
63714;SDS011;49858;48.956;9.076;2022-08-03T08:17:56;5.28;;;2.97;;
63714;SDS011;49858;48.956;9.076;2022-08-03T08:20:26;5.35;;;2.88;;
63714;SDS011;49858;48.956;9.076;2022-08-03T08:22:59;4.28;;;2.80;;
63714;SDS011;49858;48.956;9.076;2022-08-03T08:25:29;6.35;;;2.60;;
63714;SDS011;49858;48.956;9.076;2022-08-03T08:27:58;6.82;;;2.60;;
63714;SDS011;49858;48.956;9.076;2022-08-03T08:30:48;3.45;;;2.33;;
63714;SDS011;49858;48.956;9.076;2022-08-03T08:33:18;4.15;;;2.50;;
63714;SDS011;49858;48.956;9.076;2022-08-03T08:35:49;4.72;;;3.15;;
63714;SDS011;49858;48.956;9.076;2022-08-03T08:38:18;4.38;;;2.38;;
63714;SDS011;49858;48.956;9.076;2022-08-03T08:40:46;3.22;;;2.05;;
63714;SDS011;49858;48.956;9.076;2022-08-03T08:43:15;5.35;;;2.08;;
63714;SDS011;49858;48.956;9.076;2022-08-03T08:45:43;2.25;;;1.83;;
63714;SDS011;49858;48.956;9.076;2022-08-03T08:48:13;5.05;;;1.90;;
63714;SDS011;49858;48.956;9.076;2022-08-03T08:50:45;4.63;;;1.88;;
63714;SDS011;49858;48.956;9.076;2022-08-03T08:53:14;3.65;;;1.52;;
63714;SDS011;49858;48.956;9.076;2022-08-03T08:55:52;2.25;;;1.80;;
63714;SDS011;49858;48.956;9.076;2022-08-03T08:58:27;2.88;;;1.85;;
63714;SDS011;49858;48.956;9.076;2022-08-03T09:00:56;2.75;;;2.08;;
63714;SDS011;49858;48.956;9.076;2022-08-03T09:03:25;2.90;;;1.40;;
63714;SDS011;49858;48.956;9.076;2022-08-03T09:05:57;2.80;;;1.70;;
63714;SDS011;49858;48.956;9.076;2022-08-03T09:08:27;2.85;;;1.52;;
63714;SDS011;49858;48.956;9.076;2022-08-03T09:10:56;1.48;;;1.30;;
63714;SDS011;49858;48.956;9.076;2022-08-03T09:13:24;3.55;;;1.40;;
63714;SDS011;49858;48.956;9.076;2022-08-03T09:18:39;1.17;;;0.90;;
63714;SDS011;49858;48.956;9.076;2022-08-03T09:21:21;1.60;;;1.10;;
63714;SDS011;49858;48.956;9.076;2022-08-03T09:24:00;2.35;;;1.30;;
63714;SDS011;49858;48.956;9.076;2022-08-03T09:26:32;3.33;;;1.10;;
63714;SDS011;49858;48.956;9.076;2022-08-03T09:29:02;4.18;;;1.10;;
63714;SDS011;49858;48.956;9.076;2022-08-03T09:31:39;3.35;;;1.20;;
63714;SDS011;49858;48.956;9.076;2022-08-03T09:34:10;1.33;;;0.93;;
63714;SDS011;49858;48.956;9.076;2022-08-03T09:36:41;2.35;;;1.48;;
63714;SDS011;49858;48.956;9.076;2022-08-03T09:39:11;2.30;;;1.17;;
63714;SDS011;49858;48.956;9.076;2022-08-03T09:41:41;1.15;;;0.93;;
63714;SDS011;49858;48.956;9.076;2022-08-03T09:44:10;1.42;;;1.15;;
63714;SDS011;49858;48.956;9.076;2022-08-03T09:46:51;2.42;;;1.00;;
63714;SDS011;49858;48.956;9.076;2022-08-03T09:49:21;8.52;;;1.40;;
63714;SDS011;49858;48.956;9.076;2022-08-03T09:51:51;4.13;;;1.08;;
63714;SDS011;49858;48.956;9.076;2022-08-03T09:54:40;1.20;;;1.00;;
63714;SDS011;49858;48.956;9.076;2022-08-03T09:57:11;4.03;;;1.10;;
63714;SDS011;49858;48.956;9.076;2022-08-03T09:59:47;1.88;;;1.02;;
63714;SDS011;49858;48.956;9.076;2022-08-03T10:02:19;8.23;;;1.48;;
63714;SDS011;49858;48.956;9.076;2022-08-03T10:04:48;1.70;;;0.90;;
63714;SDS011;49858;48.956;9.076;2022-08-03T10:07:19;1.35;;;0.82;;
63714;SDS011;49858;48.956;9.076;2022-08-03T10:09:52;2.10;;;1.08;;
63714;SDS011;49858;48.956;9.076;2022-08-03T10:12:21;2.08;;;1.13;;
63714;SDS011;49858;48.956;9.076;2022-08-03T10:14:50;2.20;;;1.05;;
63714;SDS011;49858;48.956;9.076;2022-08-03T10:17:19;1.33;;;1.02;;
63714;SDS011;49858;48.956;9.076;2022-08-03T10:19:47;1.25;;;1.10;;
63714;SDS011;49858;48.956;9.076;2022-08-03T10:22:17;1.75;;;1.23;;
63714;SDS011;49858;48.956;9.076;2022-08-03T10:24:51;2.40;;;1.38;;
63714;SDS011;49858;48.956;9.076;2022-08-03T10:27:22;1.52;;;1.00;;
63714;SDS011;49858;48.956;9.076;2022-08-03T10:29:52;1.83;;;1.15;;
63714;SDS011;49858;48.956;9.076;2022-08-03T10:32:22;1.83;;;1.38;;
63714;SDS011;49858;48.956;9.076;2022-08-03T10:34:57;3.75;;;1.50;;
63714;SDS011;49858;48.956;9.076;2022-08-03T10:37:49;4.22;;;1.42;;
63714;SDS011;49858;48.956;9.076;2022-08-03T10:40:25;2.80;;;1.38;;
63714;SDS011;49858;48.956;9.076;2022-08-03T10:43:17;1.58;;;1.30;;
63714;SDS011;49858;48.956;9.076;2022-08-03T10:45:47;2.15;;;1.38;;
63714;SDS011;49858;48.956;9.076;2022-08-03T10:48:16;2.00;;;1.20;;
63714;SDS011;49858;48.956;9.076;2022-08-03T10:50:45;2.22;;;1.17;;
63714;SDS011;49858;48.956;9.076;2022-08-03T10:53:16;3.22;;;1.17;;
63714;SDS011;49858;48.956;9.076;2022-08-03T10:56:01;3.70;;;1.30;;
63714;SDS011;49858;48.956;9.076;2022-08-03T10:59:07;1.73;;;1.33;;
63714;SDS011;49858;48.956;9.076;2022-08-03T11:01:49;1.90;;;1.20;;
63714;SDS011;49858;48.956;9.076;2022-08-03T11:04:25;2.08;;;1.20;;
63714;SDS011;49858;48.956;9.076;2022-08-03T11:12:21;2.50;;;1.17;;
63714;SDS011;49858;48.956;9.076;2022-08-03T11:15:00;5.28;;;1.30;;
63714;SDS011;49858;48.956;9.076;2022-08-03T11:17:30;1.75;;;1.30;;
63714;SDS011;49858;48.956;9.076;2022-08-03T11:20:11;2.05;;;1.35;;
63714;SDS011;49858;48.956;9.076;2022-08-03T11:22:46;1.50;;;1.30;;
63714;SDS011;49858;48.956;9.076;2022-08-03T11:25:17;2.95;;;1.23;;
63714;SDS011;49858;48.956;9.076;2022-08-03T11:28:24;1.60;;;1.35;;
63714;SDS011;49858;48.956;9.076;2022-08-03T11:30:53;2.08;;;1.50;;
63714;SDS011;49858;48.956;9.076;2022-08-03T11:33:30;2.78;;;1.40;;
63714;SDS011;49858;48.956;9.076;2022-08-03T11:35:59;1.60;;;1.20;;
63714;SDS011;49858;48.956;9.076;2022-08-03T11:38:27;1.30;;;1.13;;
63714;SDS011;49858;48.956;9.076;2022-08-03T11:40:57;1.90;;;1.23;;
63714;SDS011;49858;48.956;9.076;2022-08-03T11:43:42;2.72;;;1.30;;
63714;SDS011;49858;48.956;9.076;2022-08-03T11:46:12;1.90;;;1.40;;
63714;SDS011;49858;48.956;9.076;2022-08-03T11:48:55;1.90;;;1.33;;
63714;SDS011;49858;48.956;9.076;2022-08-03T11:51:36;1.80;;;1.40;;
63714;SDS011;49858;48.956;9.076;2022-08-03T11:54:06;2.92;;;1.10;;
63714;SDS011;49858;48.956;9.076;2022-08-03T11:56:46;1.52;;;1.40;;
63714;SDS011;49858;48.956;9.076;2022-08-03T11:59:15;1.15;;;0.98;;
63714;SDS011;49858;48.956;9.076;2022-08-03T12:01:48;2.05;;;1.30;;
63714;SDS011;49858;48.956;9.076;2022-08-03T12:04:16;2.15;;;1.27;;
63714;SDS011;49858;48.956;9.076;2022-08-03T12:06:56;1.77;;;1.20;;
63714;SDS011;49858;48.956;9.076;2022-08-03T12:09:25;1.60;;;1.10;;
63714;SDS011;49858;48.956;9.076;2022-08-03T12:11:54;4.22;;;1.40;;
63714;SDS011;49858;48.956;9.076;2022-08-03T12:14:26;2.47;;;1.17;;
63714;SDS011;49858;48.956;9.076;2022-08-03T12:17:16;5.45;;;1.38;;
63714;SDS011;49858;48.956;9.076;2022-08-03T12:19:44;6.40;;;1.25;;
63714;SDS011;49858;48.956;9.076;2022-08-03T12:22:12;3.08;;;0.70;;
63714;SDS011;49858;48.956;9.076;2022-08-03T12:24:42;1.70;;;1.33;;
63714;SDS011;49858;48.956;9.076;2022-08-03T12:27:22;3.35;;;1.50;;
63714;SDS011;49858;48.956;9.076;2022-08-03T12:29:50;3.78;;;1.52;;
63714;SDS011;49858;48.956;9.076;2022-08-03T12:32:24;2.13;;;1.23;;
63714;SDS011;49858;48.956;9.076;2022-08-03T12:34:53;3.88;;;1.52;;
63714;SDS011;49858;48.956;9.076;2022-08-03T12:37:25;1.70;;;1.20;;
63714;SDS011;49858;48.956;9.076;2022-08-03T12:39:54;1.70;;;1.30;;
63714;SDS011;49858;48.956;9.076;2022-08-03T12:42:32;2.80;;;1.23;;
63714;SDS011;49858;48.956;9.076;2022-08-03T12:47:48;1.50;;;1.30;;
63714;SDS011;49858;48.956;9.076;2022-08-03T12:50:22;2.85;;;1.10;;
63714;SDS011;49858;48.956;9.076;2022-08-03T12:52:51;1.85;;;1.25;;
63714;SDS011;49858;48.956;9.076;2022-08-03T12:55:19;4.10;;;1.30;;
63714;SDS011;49858;48.956;9.076;2022-08-03T12:57:49;2.17;;;1.42;;
63714;SDS011;49858;48.956;9.076;2022-08-03T13:00:18;4.82;;;1.25;;
63714;SDS011;49858;48.956;9.076;2022-08-03T13:02:58;6.20;;;1.60;;
63714;SDS011;49858;48.956;9.076;2022-08-03T13:05:47;2.13;;;1.35;;
63714;SDS011;49858;48.956;9.076;2022-08-03T13:08:16;3.15;;;1.38;;
63714;SDS011;49858;48.956;9.076;2022-08-03T13:10:46;3.90;;;1.27;;
63714;SDS011;49858;48.956;9.076;2022-08-03T13:13:15;5.13;;;1.30;;
63714;SDS011;49858;48.956;9.076;2022-08-03T13:15:46;2.00;;;1.48;;
63714;SDS011;49858;48.956;9.076;2022-08-03T13:18:13;6.03;;;1.60;;
63714;SDS011;49858;48.956;9.076;2022-08-03T13:20:42;3.15;;;1.48;;
63714;SDS011;49858;48.956;9.076;2022-08-03T13:23:10;1.60;;;1.27;;
63714;SDS011;49858;48.956;9.076;2022-08-03T13:25:48;1.70;;;1.30;;
63714;SDS011;49858;48.956;9.076;2022-08-03T13:28:22;2.25;;;1.45;;
63714;SDS011;49858;48.956;9.076;2022-08-03T13:30:50;3.42;;;1.30;;
63714;SDS011;49858;48.956;9.076;2022-08-03T13:33:20;2.20;;;1.13;;
63714;SDS011;49858;48.956;9.076;2022-08-03T13:35:47;3.63;;;1.40;;
63714;SDS011;49858;48.956;9.076;2022-08-03T13:38:15;1.83;;;1.50;;
63714;SDS011;49858;48.956;9.076;2022-08-03T13:40:46;3.58;;;1.40;;
63714;SDS011;49858;48.956;9.076;2022-08-03T13:43:15;1.73;;;1.35;;
63714;SDS011;49858;48.956;9.076;2022-08-03T13:45:44;1.50;;;1.30;;
63714;SDS011;49858;48.956;9.076;2022-08-03T13:48:20;1.50;;;1.13;;
63714;SDS011;49858;48.956;9.076;2022-08-03T13:51:03;7.00;;;1.40;;
63714;SDS011;49858;48.956;9.076;2022-08-03T13:53:48;3.42;;;1.40;;
63714;SDS011;49858;48.956;9.076;2022-08-03T13:56:16;3.05;;;1.42;;
63714;SDS011;49858;48.956;9.076;2022-08-03T13:58:44;2.55;;;1.27;;
63714;SDS011;49858;48.956;9.076;2022-08-03T14:01:13;2.95;;;1.42;;
63714;SDS011;49858;48.956;9.076;2022-08-03T14:04:03;1.70;;;1.27;;
63714;SDS011;49858;48.956;9.076;2022-08-03T14:06:46;2.17;;;1.40;;
63714;SDS011;49858;48.956;9.076;2022-08-03T14:09:14;1.70;;;1.48;;
63714;SDS011;49858;48.956;9.076;2022-08-03T14:11:43;2.67;;;1.55;;
63714;SDS011;49858;48.956;9.076;2022-08-03T14:14:31;1.60;;;1.20;;
63714;SDS011;49858;48.956;9.076;2022-08-03T14:17:00;5.65;;;1.30;;
63714;SDS011;49858;48.956;9.076;2022-08-03T14:19:28;1.42;;;1.20;;
63714;SDS011;49858;48.956;9.076;2022-08-03T14:21:56;1.60;;;1.30;;
63714;SDS011;49858;48.956;9.076;2022-08-03T14:24:32;2.65;;;1.13;;
63714;SDS011;49858;48.956;9.076;2022-08-03T14:26:59;1.80;;;1.33;;
63714;SDS011;49858;48.956;9.076;2022-08-03T14:29:34;2.25;;;1.77;;
63714;SDS011;49858;48.956;9.076;2022-08-03T14:32:04;1.40;;;1.20;;
63714;SDS011;49858;48.956;9.076;2022-08-03T14:34:37;4.20;;;1.38;;
63714;SDS011;49858;48.956;9.076;2022-08-03T14:37:05;1.70;;;1.30;;
63714;SDS011;49858;48.956;9.076;2022-08-03T14:39:33;1.88;;;1.10;;
63714;SDS011;49858;48.956;9.076;2022-08-03T14:42:21;1.88;;;1.50;;
63714;SDS011;49858;48.956;9.076;2022-08-03T14:44:49;1.60;;;1.20;;
63714;SDS011;49858;48.956;9.076;2022-08-03T14:47:18;2.08;;;1.50;;
63714;SDS011;49858;48.956;9.076;2022-08-03T14:49:46;1.33;;;1.17;;
63714;SDS011;49858;48.956;9.076;2022-08-03T14:52:34;1.67;;;1.40;;
63714;SDS011;49858;48.956;9.076;2022-08-03T14:55:02;1.80;;;1.30;;
63714;SDS011;49858;48.956;9.076;2022-08-03T14:57:30;2.08;;;1.38;;
63714;SDS011;49858;48.956;9.076;2022-08-03T14:59:58;3.25;;;1.17;;
63714;SDS011;49858;48.956;9.076;2022-08-03T15:02:28;4.50;;;1.35;;
63714;SDS011;49858;48.956;9.076;2022-08-03T15:04:55;5.00;;;1.45;;
63714;SDS011;49858;48.956;9.076;2022-08-03T15:07:23;2.78;;;1.25;;
63714;SDS011;49858;48.956;9.076;2022-08-03T15:09:51;1.35;;;1.10;;
63714;SDS011;49858;48.956;9.076;2022-08-03T15:12:19;4.47;;;1.40;;
63714;SDS011;49858;48.956;9.076;2022-08-03T15:14:47;3.67;;;1.25;;
63714;SDS011;49858;48.956;9.076;2022-08-03T15:17:15;2.22;;;1.45;;
63714;SDS011;49858;48.956;9.076;2022-08-03T15:19:44;1.67;;;1.30;;
63714;SDS011;49858;48.956;9.076;2022-08-03T15:22:32;2.35;;;1.25;;
63714;SDS011;49858;48.956;9.076;2022-08-03T15:25:00;1.77;;;1.60;;
63714;SDS011;49858;48.956;9.076;2022-08-03T15:27:49;1.83;;;1.40;;
63714;SDS011;49858;48.956;9.076;2022-08-03T15:30:30;2.22;;;1.55;;
63714;SDS011;49858;48.956;9.076;2022-08-03T15:33:01;3.55;;;1.55;;